KTCL/TCL METAR and TAF weather

Enter ICAO airport designator
Station Type Date Time Source
KTCL METAR 2019/12/08 06:53 UTC NOAA

KTCL 080653Z 09004KT 10SM OVC050 11/08 A3020 RMK AO2 SLP224 T01110083


Station Type Date Time Source
KTCL Decoded METAR 2019/12/08 06:53 UTC NOAA

TUSCALOOSA REGIONAL AIRPORT, AL, United States (KTCL) 33-13N 087-37W
Dec 08, 2019 - 01:53 AM EST / 2019.12.08 0653 UTC
Wind: from the E (090 degrees) at 5 MPH (4 KT):0
Visibility: 10 mile(s):0
Sky conditions: overcast
Temperature: 52.0 F (11.1 C)
Dew Point: 46.9 F (8.3 C)
Relative Humidity: 82%
Pressure (altimeter): 30.2 in. Hg (1022 hPa)
ob: KTCL 080653Z 09004KT 10SM OVC050 11/08 A3020 RMK AO2 SLP224 T01110083
cycle: 7

Station Type Date Time Source
KTCL TAF 2019/12/08 06:42 UTC NOAA

TAF KTCL 080538Z 0806/0906 00000KT P6SM OVC050
FM081600 14009KT P6SM OVC050
FM082300 14009KT P6SM BKN030
FM090300 15009KT P6SM OVC015

Example: see airport list